sensor_id;sensor_type;location;lat;lon;timestamp;pressure;altitude;pressure_sealevel;temperature;humidity
42111;BME280;27766;52.174;5.456;2022-10-31T00:01:27;101949.38;;;11.47;100.00
42111;BME280;27766;52.174;5.456;2022-10-31T00:03:55;101961.44;;;11.47;100.00
42111;BME280;27766;52.174;5.456;2022-10-31T00:06:22;101965.81;;;11.48;100.00
42111;BME280;27766;52.174;5.456;2022-10-31T00:08:55;101961.44;;;11.47;100.00
42111;BME280;27766;52.174;5.456;2022-10-31T00:11:23;101966.63;;;11.47;100.00
42111;BME280;27766;52.174;5.456;2022-10-31T00:13:51;101966.63;;;11.47;100.00
42111;BME280;27766;52.174;5.456;2022-10-31T00:16:20;101958.81;;;11.45;100.00
42111;BME280;27766;52.174;5.456;2022-10-31T00:18:51;101957.09;;;11.46;100.00
42111;BME280;27766;52.174;5.456;2022-10-31T00:21:19;101964.03;;;11.47;100.00
42111;BME280;27766;52.174;5.456;2022-10-31T00:23:47;101968.47;;;11.49;100.00
42111;BME280;27766;52.174;5.456;2022-10-31T00:26:14;101965.88;;;11.49;100.00
42111;BME280;27766;52.174;5.456;2022-10-31T00:28:41;101967.53;;;11.47;100.00
42111;BME280;27766;52.174;5.456;2022-10-31T00:31:10;101964.03;;;11.47;100.00
42111;BME280;27766;52.174;5.456;2022-10-31T00:33:39;101972.59;;;11.44;100.00
42111;BME280;27766;52.174;5.456;2022-10-31T00:36:07;101971.63;;;11.40;100.00
42111;BME280;27766;52.174;5.456;2022-10-31T00:38:37;101977.63;;;11.39;100.00
42111;BME280;27766;52.174;5.456;2022-10-31T00:41:04;101961.06;;;11.34;100.00
42111;BME280;27766;52.174;5.456;2022-10-31T00:43:31;101968.84;;;11.34;100.00
42111;BME280;27766;52.174;5.456;2022-10-31T00:45:58;101972.09;;;11.29;100.00
42111;BME280;27766;52.174;5.456;2022-10-31T00:48:26;101975.53;;;11.28;100.00
42111;BME280;27766;52.174;5.456;2022-10-31T00:50:53;101973.75;;;11.27;100.00
42111;BME280;27766;52.174;5.456;2022-10-31T00:53:20;101971.28;;;11.30;100.00
42111;BME280;27766;52.174;5.456;2022-10-31T00:55:47;101978.22;;;11.31;100.00
42111;BME280;27766;52.174;5.456;2022-10-31T00:58:14;101978.19;;;11.29;100.00
42111;BME280;27766;52.174;5.456;2022-10-31T01:00:42;101976.41;;;11.28;100.00
42111;BME280;27766;52.174;5.456;2022-10-31T01:03:15;101986.00;;;11.31;100.00
42111;BME280;27766;52.174;5.456;2022-10-31T01:05:42;101978.06;;;11.26;100.00
42111;BME280;27766;52.174;5.456;2022-10-31T01:08:09;101973.75;;;11.27;100.00
42111;BME280;27766;52.174;5.456;2022-10-31T01:10:36;101975.34;;;11.23;100.00
42111;BME280;27766;52.174;5.456;2022-10-31T01:13:03;101977.88;;;11.20;100.00
42111;BME280;27766;52.174;5.456;2022-10-31T01:15:30;101967.38;;;11.17;100.00
42111;BME280;27766;52.174;5.456;2022-10-31T01:17:57;101976.84;;;11.15;100.00
42111;BME280;27766;52.174;5.456;2022-10-31T01:20:25;101969.66;;;11.07;100.00
42111;BME280;27766;52.174;5.456;2022-10-31T01:22:52;101967.94;;;11.06;100.00
42111;BME280;27766;52.174;5.456;2022-10-31T01:25:19;101963.50;;;11.04;100.00
42111;BME280;27766;52.174;5.456;2022-10-31T01:27:46;101963.44;;;11.02;100.00
42111;BME280;27766;52.174;5.456;2022-10-31T01:30:13;101954.75;;;11.00;100.00
42111;BME280;27766;52.174;5.456;2022-10-31T01:32:40;101955.72;;;11.04;100.00
42111;BME280;27766;52.174;5.456;2022-10-31T01:35:07;101951.31;;;11.01;100.00
42111;BME280;27766;52.174;5.456;2022-10-31T01:37:34;101948.56;;;10.97;100.00
42111;BME280;27766;52.174;5.456;2022-10-31T01:40:01;101957.13;;;10.94;100.00
42111;BME280;27766;52.174;5.456;2022-10-31T01:42:29;101955.31;;;10.91;100.00
42111;BME280;27766;52.174;5.456;2022-10-31T01:44:59;101952.56;;;10.87;100.00
42111;BME280;27766;52.174;5.456;2022-10-31T01:47:38;101955.78;;;10.80;100.00
42111;BME280;27766;52.174;5.456;2022-10-31T01:50:35;101940.69;;;10.68;100.00
42111;BME280;27766;52.174;5.456;2022-10-31T01:53:05;101945.66;;;10.61;100.00
42111;BME280;27766;52.174;5.456;2022-10-31T01:55:36;101946.22;;;10.53;100.00
42111;BME280;27766;52.174;5.456;2022-10-31T01:58:09;101943.47;;;10.48;100.00
42111;BME280;27766;52.174;5.456;2022-10-31T02:00:39;101939.91;;;10.46;100.00
42111;BME280;27766;52.174;5.456;2022-10-31T02:03:09;101935.53;;;10.43;100.00
42111;BME280;27766;52.174;5.456;2022-10-31T02:05:37;101940.69;;;10.43;100.00
42111;BME280;27766;52.174;5.456;2022-10-31T02:08:14;101946.38;;;10.35;100.00
42111;BME280;27766;52.174;5.456;2022-10-31T02:10:43;101943.50;;;10.27;100.00
42111;BME280;27766;52.174;5.456;2022-10-31T02:13:11;101941.69;;;10.24;100.00
42111;BME280;27766;52.174;5.456;2022-10-31T02:15:40;101938.22;;;10.24;100.00
42111;BME280;27766;52.174;5.456;2022-10-31T02:18:09;101931.34;;;10.24;100.00
42111;BME280;27766;52.174;5.456;2022-10-31T02:30:03;101945.47;;;10.10;100.00
42111;BME280;27766;52.174;5.456;2022-10-31T02:32:50;101943.59;;;10.06;100.00
42111;BME280;27766;52.174;5.456;2022-10-31T02:35:39;101951.16;;;10.01;100.00
42111;BME280;27766;52.174;5.456;2022-10-31T02:41:23;101943.22;;;9.96;100.00
42111;BME280;27766;52.174;5.456;2022-10-31T02:43:56;101942.22;;;9.93;100.00
42111;BME280;27766;52.174;5.456;2022-10-31T02:46:52;101948.06;;;9.87;100.00
42111;BME280;27766;52.174;5.456;2022-10-31T02:49:48;101946.81;;;9.77;100.00
42111;BME280;27766;52.174;5.456;2022-10-31T02:52:28;101945.19;;;9.79;100.00
42111;BME280;27766;52.174;5.456;2022-10-31T02:54:55;101933.56;;;9.68;100.00
42111;BME280;27766;52.174;5.456;2022-10-31T02:57:31;101952.75;;;9.75;100.00
42111;BME280;27766;52.174;5.456;2022-10-31T03:00:04;101943.50;;;9.80;100.00
42111;BME280;27766;52.174;5.456;2022-10-31T03:08:01;101942.31;;;9.72;100.00
42111;BME280;27766;52.174;5.456;2022-10-31T03:10:52;101943.88;;;9.68;100.00
42111;BME280;27766;52.174;5.456;2022-10-31T03:16:23;101949.75;;;9.64;100.00
42111;BME280;27766;52.174;5.456;2022-10-31T03:22:16;101952.31;;;9.64;100.00
42111;BME280;27766;52.174;5.456;2022-10-31T03:24:45;101955.63;;;9.60;100.00
42111;BME280;27766;52.174;5.456;2022-10-31T03:27:15;101958.06;;;9.57;100.00
42111;BME280;27766;52.174;5.456;2022-10-31T03:29:44;101959.84;;;9.58;100.00
42111;BME280;27766;52.174;5.456;2022-10-31T03:32:43;101959.84;;;9.58;100.00
42111;BME280;27766;52.174;5.456;2022-10-31T03:35:09;101957.22;;;9.56;100.00
42111;BME280;27766;52.174;5.456;2022-10-31T03:37:39;101955.31;;;9.52;100.00
42111;BME280;27766;52.174;5.456;2022-10-31T03:40:08;101957.69;;;9.47;100.00
42111;BME280;27766;52.174;5.456;2022-10-31T03:42:41;101948.75;;;9.39;100.00
42111;BME280;27766;52.174;5.456;2022-10-31T03:45:15;101952.88;;;9.34;100.00
42111;BME280;27766;52.174;5.456;2022-10-31T03:47:45;101955.44;;;9.34;100.00
42111;BME280;27766;52.174;5.456;2022-10-31T03:50:14;101950.16;;;9.31;100.00
42111;BME280;27766;52.174;5.456;2022-10-31T03:52:49;101963.81;;;9.28;100.00
42111;BME280;27766;52.174;5.456;2022-10-31T03:55:40;101955.97;;;9.25;100.00
42111;BME280;27766;52.174;5.456;2022-10-31T03:58:30;101953.38;;;9.25;100.00
42111;BME280;27766;52.174;5.456;2022-10-31T04:01:01;101957.66;;;9.25;100.00
42111;BME280;27766;52.174;5.456;2022-10-31T04:03:32;101946.25;;;9.19;100.00
42111;BME280;27766;52.174;5.456;2022-10-31T04:06:06;101949.91;;;9.25;100.00
42111;BME280;27766;52.174;5.456;2022-10-31T04:08:56;101950.66;;;9.22;100.00
42111;BME280;27766;52.174;5.456;2022-10-31T04:11:30;101950.59;;;9.21;100.00
42111;BME280;27766;52.174;5.456;2022-10-31T04:13:59;101946.25;;;9.19;100.00
42111;BME280;27766;52.174;5.456;2022-10-31T04:16:28;101958.22;;;9.17;100.00
42111;BME280;27766;52.174;5.456;2022-10-31T04:18:56;101967.72;;;9.18;100.00
42111;BME280;27766;52.174;5.456;2022-10-31T04:21:30;101963.38;;;9.17;100.00
42111;BME280;27766;52.174;5.456;2022-10-31T04:23:57;101951.03;;;9.10;100.00
42111;BME280;27766;52.174;5.456;2022-10-31T04:26:24;101963.06;;;9.10;100.00
42111;BME280;27766;52.174;5.456;2022-10-31T04:28:52;101961.09;;;9.04;100.00
42111;BME280;27766;52.174;5.456;2022-10-31T04:31:19;101952.00;;;8.93;100.00
42111;BME280;27766;52.174;5.456;2022-10-31T04:33:46;101958.13;;;8.95;100.00
42111;BME280;27766;52.174;5.456;2022-10-31T04:36:13;101959.75;;;8.93;100.00
42111;BME280;27766;52.174;5.456;2022-10-31T04:38:40;101948.63;;;8.94;100.00
42111;BME280;27766;52.174;5.456;2022-10-31T04:41:07;101946.03;;;8.94;100.00
42111;BME280;27766;52.174;5.456;2022-10-31T04:43:34;101949.38;;;8.91;100.00
42111;BME280;27766;52.174;5.456;2022-10-31T04:46:01;101946.69;;;8.88;100.00
42111;BME280;27766;52.174;5.456;2022-10-31T04:48:29;101950.94;;;8.87;100.00
42111;BME280;27766;52.174;5.456;2022-10-31T04:50:59;101947.53;;;8.89;100.00
42111;BME280;27766;52.174;5.456;2022-10-31T04:53:27;101946.59;;;8.86;100.00
42111;BME280;27766;52.174;5.456;2022-10-31T04:55:55;101942.19;;;8.84;100.00
42111;BME280;27766;52.174;5.456;2022-10-31T04:58:24;101944.69;;;8.82;100.00
42111;BME280;27766;52.174;5.456;2022-10-31T05:00:52;101944.69;;;8.82;100.00
42111;BME280;27766;52.174;5.456;2022-10-31T05:03:20;101942.88;;;8.80;100.00
42111;BME280;27766;52.174;5.456;2022-10-31T05:05:47;101945.25;;;8.75;100.00
42111;BME280;27766;52.174;5.456;2022-10-31T05:08:14;101938.06;;;8.68;100.00
42111;BME280;27766;52.174;5.456;2022-10-31T05:10:41;101934.72;;;8.70;100.00
42111;BME280;27766;52.174;5.456;2022-10-31T05:13:08;101934.78;;;8.72;100.00
42111;BME280;27766;52.174;5.456;2022-10-31T05:15:36;101932.22;;;8.72;100.00
42111;BME280;27766;52.174;5.456;2022-10-31T05:18:03;101939.91;;;8.70;100.00
42111;BME280;27766;52.174;5.456;2022-10-31T05:20:31;101933.97;;;8.73;100.00
42111;BME280;27766;52.174;5.456;2022-10-31T05:22:59;101936.63;;;8.75;100.00
42111;BME280;27766;52.174;5.456;2022-10-31T05:25:28;101928.63;;;8.68;100.00
42111;BME280;27766;52.174;5.456;2022-10-31T05:27:57;101928.88;;;8.75;100.00
42111;BME280;27766;52.174;5.456;2022-10-31T05:30:27;101926.38;;;8.76;100.00
42111;BME280;27766;52.174;5.456;2022-10-31T05:32:56;101928.06;;;8.76;100.00
42111;BME280;27766;52.174;5.456;2022-10-31T05:35:26;101931.53;;;8.76;100.00
42111;BME280;27766;52.174;5.456;2022-10-31T05:37:53;101926.38;;;8.76;100.00
42111;BME280;27766;52.174;5.456;2022-10-31T05:40:20;101927.25;;;8.77;100.00
42111;BME280;27766;52.174;5.456;2022-10-31T05:42:51;101925.69;;;8.80;100.00
42111;BME280;27766;52.174;5.456;2022-10-31T05:45:19;101925.94;;;8.86;100.00
42111;BME280;27766;52.174;5.456;2022-10-31T05:47:57;101919.13;;;8.89;100.00
42111;BME280;27766;52.174;5.456;2022-10-31T05:50:27;101921.97;;;8.95;100.00
42111;BME280;27766;52.174;5.456;2022-10-31T05:55:23;101910.69;;;8.93;100.00
42111;BME280;27766;52.174;5.456;2022-10-31T05:57:50;101919.66;;;9.01;100.00
42111;BME280;27766;52.174;5.456;2022-10-31T06:00:18;101915.44;;;9.03;100.00
42111;BME280;27766;52.174;5.456;2022-10-31T06:02:45;101910.31;;;9.05;100.00
42111;BME280;27766;52.174;5.456;2022-10-31T06:05:13;101912.84;;;9.03;100.00
42111;BME280;27766;52.174;5.456;2022-10-31T06:07:40;101913.00;;;9.06;100.00
42111;BME280;27766;52.174;5.456;2022-10-31T06:10:07;101913.00;;;9.06;100.00
42111;BME280;27766;52.174;5.456;2022-10-31T06:12:35;101907.63;;;9.01;100.00
42111;BME280;27766;52.174;5.456;2022-10-31T06:15:05;101912.84;;;9.03;100.00
42111;BME280;27766;52.174;5.456;2022-10-31T06:17:34;101914.63;;;9.04;100.00
42111;BME280;27766;52.174;5.456;2022-10-31T06:20:01;101913.66;;;9.02;100.00
42111;BME280;27766;52.174;5.456;2022-10-31T06:22:28;101916.25;;;9.02;100.00
42111;BME280;27766;52.174;5.456;2022-10-31T06:24:56;101916.25;;;9.02;100.00
42111;BME280;27766;52.174;5.456;2022-10-31T06:27:23;101897.97;;;8.97;100.00
42111;BME280;27766;52.174;5.456;2022-10-31T06:29:51;101907.69;;;9.03;100.00
42111;BME280;27766;52.174;5.456;2022-10-31T06:32:18;101907.69;;;9.03;100.00
42111;BME280;27766;52.174;5.456;2022-10-31T06:34:45;101916.34;;;9.03;100.00
42111;BME280;27766;52.174;5.456;2022-10-31T06:37:15;101916.38;;;9.05;100.00
42111;BME280;27766;52.174;5.456;2022-10-31T06:39:42;101913.66;;;9.02;100.00
42111;BME280;27766;52.174;5.456;2022-10-31T06:42:09;101919.22;;;9.11;100.00
42111;BME280;27766;52.174;5.456;2022-10-31T06:44:37;101921.94;;;9.14;100.00
42111;BME280;27766;52.174;5.456;2022-10-31T06:47:05;101922.03;;;9.17;100.00
42111;BME280;27766;52.174;5.456;2022-10-31T06:49:32;101930.75;;;9.19;100.00
42111;BME280;27766;52.174;5.456;2022-10-31T06:51:59;101926.59;;;9.23;100.00
42111;BME280;27766;52.174;5.456;2022-10-31T06:54:26;101925.81;;;9.26;100.00
42111;BME280;27766;52.174;5.456;2022-10-31T06:56:53;101932.00;;;9.29;100.00
42111;BME280;27766;52.174;5.456;2022-10-31T06:59:20;101925.97;;;9.29;100.00
42111;BME280;27766;52.174;5.456;2022-10-31T07:01:48;101932.97;;;9.31;100.00
42111;BME280;27766;52.174;5.456;2022-10-31T07:04:15;101932.91;;;9.30;100.00
42111;BME280;27766;52.174;5.456;2022-10-31T07:06:42;101930.31;;;9.30;100.00
42111;BME280;27766;52.174;5.456;2022-10-31T07:09:15;101938.31;;;9.36;100.00
42111;BME280;27766;52.174;5.456;2022-10-31T07:11:42;101930.50;;;9.34;100.00
42111;BME280;27766;52.174;5.456;2022-10-31T07:14:09;101934.00;;;9.37;100.00
42111;BME280;27766;52.174;5.456;2022-10-31T07:16:36;101934.91;;;9.37;100.00
42111;BME280;27766;52.174;5.456;2022-10-31T07:19:03;101928.09;;;9.39;100.00
42111;BME280;27766;52.174;5.456;2022-10-31T07:21:30;101938.56;;;9.42;100.00
42111;BME280;27766;52.174;5.456;2022-10-31T07:23:57;101935.97;;;9.42;100.00
42111;BME280;27766;52.174;5.456;2022-10-31T07:26:24;101915.06;;;9.36;100.00
42111;BME280;27766;52.174;5.456;2022-10-31T07:28:51;101926.69;;;9.47;100.00
42111;BME280;27766;52.174;5.456;2022-10-31T07:31:18;101925.88;;;9.48;100.00
42111;BME280;27766;52.174;5.456;2022-10-31T07:33:45;101934.44;;;9.47;100.00
42111;BME280;27766;52.174;5.456;2022-10-31T07:36:12;101932.81;;;9.49;100.00
42111;BME280;27766;52.174;5.456;2022-10-31T07:38:39;101935.59;;;9.54;100.00
42111;BME280;27766;52.174;5.456;2022-10-31T07:41:06;101937.31;;;9.54;100.00
42111;BME280;27766;52.174;5.456;2022-10-31T07:43:33;101940.16;;;9.61;100.00
42111;BME280;27766;52.174;5.456;2022-10-31T07:46:00;101947.16;;;9.64;100.00
42111;BME280;27766;52.174;5.456;2022-10-31T07:48:27;101941.34;;;9.70;100.00
42111;BME280;27766;52.174;5.456;2022-10-31T07:50:55;101944.19;;;9.76;100.00
42111;BME280;27766;52.174;5.456;2022-10-31T07:53:22;101950.41;;;9.81;100.00
42111;BME280;27766;52.174;5.456;2022-10-31T07:55:49;101939.41;;;9.87;100.00
42111;BME280;27766;52.174;5.456;2022-10-31T07:58:16;101943.09;;;9.92;100.00
42111;BME280;27766;52.174;5.456;2022-10-31T08:00:45;101941.53;;;9.97;100.00
42111;BME280;27766;52.174;5.456;2022-10-31T08:03:15;101913.69;;;9.90;100.00
42111;BME280;27766;52.174;5.456;2022-10-31T08:05:42;101931.44;;;10.03;100.00
42111;BME280;27766;52.174;5.456;2022-10-31T08:08:13;101937.72;;;10.10;100.00
42111;BME280;27766;52.174;5.456;2022-10-31T08:10:40;101947.69;;;10.23;100.00
42111;BME280;27766;52.174;5.456;2022-10-31T08:13:10;101944.47;;;10.29;100.00
42111;BME280;27766;52.174;5.456;2022-10-31T08:15:37;101950.94;;;10.40;100.00
42111;BME280;27766;52.174;5.456;2022-10-31T08:18:11;101951.28;;;10.50;100.00
42111;BME280;27766;52.174;5.456;2022-10-31T08:20:39;101949.09;;;10.62;100.00
42111;BME280;27766;52.174;5.456;2022-10-31T08:23:07;101960.78;;;10.75;100.00
42111;BME280;27766;52.174;5.456;2022-10-31T08:25:35;101956.75;;;10.83;100.00
42111;BME280;27766;52.174;5.456;2022-10-31T08:28:06;101953.56;;;10.90;100.00
42111;BME280;27766;52.174;5.456;2022-10-31T08:30:35;101961.59;;;10.98;100.00
42111;BME280;27766;52.174;5.456;2022-10-31T08:33:09;101955.00;;;11.08;100.00
42111;BME280;27766;52.174;5.456;2022-10-31T08:35:39;101954.38;;;11.15;100.00
42111;BME280;27766;52.174;5.456;2022-10-31T08:38:09;101938.19;;;11.21;100.00
42111;BME280;27766;52.174;5.456;2022-10-31T08:40:37;101941.91;;;11.29;100.00
42111;BME280;27766;52.174;5.456;2022-10-31T08:43:15;101940.38;;;11.36;100.00
42111;BME280;27766;52.174;5.456;2022-10-31T08:45:43;101940.53;;;11.40;100.00
42111;BME280;27766;52.174;5.456;2022-10-31T08:48:13;101938.88;;;11.43;100.00
42111;BME280;27766;52.174;5.456;2022-10-31T08:50:42;101938.06;;;11.45;100.00
42111;BME280;27766;52.174;5.456;2022-10-31T08:53:13;101942.47;;;11.48;100.00
42111;BME280;27766;52.174;5.456;2022-10-31T08:55:42;101935.53;;;11.47;100.00
42111;BME280;27766;52.174;5.456;2022-10-31T08:58:11;101933.75;;;11.46;100.00
42111;BME280;27766;52.174;5.456;2022-10-31T09:00:38;101913.13;;;11.49;100.00
42111;BME280;27766;52.174;5.456;2022-10-31T09:03:12;101914.91;;;11.50;100.00
42111;BME280;27766;52.174;5.456;2022-10-31T09:05:40;101911.31;;;11.46;100.00
42111;BME280;27766;52.174;5.456;2022-10-31T09:08:07;101912.41;;;11.53;100.00
42111;BME280;27766;52.174;5.456;2022-10-31T09:10:42;101915.19;;;11.59;100.00
42111;BME280;27766;52.174;5.456;2022-10-31T09:13:19;101908.56;;;11.69;100.00
42111;BME280;27766;52.174;5.456;2022-10-31T09:15:48;101913.06;;;11.75;100.00
42111;BME280;27766;52.174;5.456;2022-10-31T09:18:19;101899.44;;;11.82;100.00
42111;BME280;27766;52.174;5.456;2022-10-31T09:20:47;101899.75;;;11.93;100.00
42111;BME280;27766;52.174;5.456;2022-10-31T09:23:17;101893.25;;;12.06;100.00
42111;BME280;27766;52.174;5.456;2022-10-31T09:25:46;101885.81;;;12.18;100.00
42111;BME280;27766;52.174;5.456;2022-10-31T09:28:19;101892.91;;;12.25;100.00
42111;BME280;27766;52.174;5.456;2022-10-31T09:30:48;101882.81;;;12.34;100.00
42111;BME280;27766;52.174;5.456;2022-10-31T09:33:16;101872.47;;;12.38;100.00
42111;BME280;27766;52.174;5.456;2022-10-31T09:35:43;101867.53;;;12.47;100.00
42111;BME280;27766;52.174;5.456;2022-10-31T09:38:13;101871.31;;;12.58;100.00
42111;BME280;27766;52.174;5.456;2022-10-31T09:41:01;101862.03;;;12.68;100.00
42111;BME280;27766;52.174;5.456;2022-10-31T09:44:33;101858.00;;;12.79;100.00
42111;BME280;27766;52.174;5.456;2022-10-31T09:52:22;101875.47;;;13.22;100.00
42111;BME280;27766;52.174;5.456;2022-10-31T09:54:58;101866.09;;;13.28;100.00
42111;BME280;27766;52.174;5.456;2022-10-31T09:57:32;101855.72;;;13.28;100.00
42111;BME280;27766;52.174;5.456;2022-10-31T10:00:03;101864.63;;;13.38;100.00
42111;BME280;27766;52.174;5.456;2022-10-31T10:02:46;101870.81;;;13.45;100.00
42111;BME280;27766;52.174;5.456;2022-10-31T10:05:23;101863.19;;;13.51;100.00
42111;BME280;27766;52.174;5.456;2022-10-31T10:08:09;101859.06;;;13.61;100.00
42111;BME280;27766;52.174;5.456;2022-10-31T10:11:04;101861.84;;;13.70;100.00
42111;BME280;27766;52.174;5.456;2022-10-31T10:13:45;101858.44;;;13.73;100.00
42111;BME280;27766;52.174;5.456;2022-10-31T10:18:57;101850.03;;;13.86;100.00
42111;BME280;27766;52.174;5.456;2022-10-31T10:31:58;101839.19;;;14.09;100.00
42111;BME280;27766;52.174;5.456;2022-10-31T10:34:35;101829.72;;;14.13;100.00
42111;BME280;27766;52.174;5.456;2022-10-31T10:37:40;101830.72;;;14.19;100.00
42111;BME280;27766;52.174;5.456;2022-10-31T10:40:14;101822.91;;;14.19;100.00
42111;BME280;27766;52.174;5.456;2022-10-31T10:43:19;101821.28;;;14.24;100.00
42111;BME280;27766;52.174;5.456;2022-10-31T10:46:18;101823.09;;;14.29;100.00
42111;BME280;27766;52.174;5.456;2022-10-31T10:51:58;101821.63;;;14.43;100.00
42111;BME280;27766;52.174;5.456;2022-10-31T10:57:55;101802.75;;;14.58;100.00
42111;BME280;27766;52.174;5.456;2022-10-31T11:00:34;101779.50;;;14.67;100.00
42111;BME280;27766;52.174;5.456;2022-10-31T11:03:03;101778.72;;;14.73;100.00
42111;BME280;27766;52.174;5.456;2022-10-31T11:05:38;101772.75;;;14.79;100.00
42111;BME280;27766;52.174;5.456;2022-10-31T11:08:06;101765.94;;;14.88;100.00
42111;BME280;27766;52.174;5.456;2022-10-31T11:10:34;101751.28;;;14.97;100.00
42111;BME280;27766;52.174;5.456;2022-10-31T11:13:21;101749.66;;;15.05;100.00
42111;BME280;27766;52.174;5.456;2022-10-31T11:16:02;101732.28;;;15.07;100.00
42111;BME280;27766;52.174;5.456;2022-10-31T11:18:32;101708.75;;;15.02;100.00
42111;BME280;27766;52.174;5.456;2022-10-31T11:21:01;101717.63;;;15.14;100.00
42111;BME280;27766;52.174;5.456;2022-10-31T11:23:31;101723.75;;;15.17;100.00
42111;BME280;27766;52.174;5.456;2022-10-31T11:26:04;101717.69;;;15.22;100.00
42111;BME280;27766;52.174;5.456;2022-10-31T11:28:33;101727.25;;;15.21;100.00
42111;BME280;27766;52.174;5.456;2022-10-31T11:31:11;101721.28;;;15.28;100.00
42111;BME280;27766;52.174;5.456;2022-10-31T11:33:48;101724.84;;;15.38;100.00
42111;BME280;27766;52.174;5.456;2022-10-31T11:36:24;101730.97;;;15.40;100.00
42111;BME280;27766;52.174;5.456;2022-10-31T11:38:53;101737.13;;;15.45;100.00
42111;BME280;27766;52.174;5.456;2022-10-31T11:41:32;101718.91;;;15.50;100.00
42111;BME280;27766;52.174;5.456;2022-10-31T11:44:05;101718.91;;;15.50;100.00
42111;BME280;27766;52.174;5.456;2022-10-31T11:46:45;101710.25;;;15.51;100.00
42111;BME280;27766;52.174;5.456;2022-10-31T11:51:52;101717.19;;;15.50;100.00
42111;BME280;27766;52.174;5.456;2022-10-31T11:54:28;101709.38;;;15.54;100.00
42111;BME280;27766;52.174;5.456;2022-10-31T11:56:56;101711.25;;;15.62;100.00
42111;BME280;27766;52.174;5.456;2022-10-31T11:59:28;101697.25;;;15.54;100.00
42111;BME280;27766;52.174;5.456;2022-10-31T12:01:58;101667.56;;;15.46;100.00
42111;BME280;27766;52.174;5.456;2022-10-31T12:04:35;101667.59;;;15.49;100.00
42111;BME280;27766;52.174;5.456;2022-10-31T12:07:04;101662.31;;;15.43;100.00
42111;BME280;27766;52.174;5.456;2022-10-31T12:09:35;101649.25;;;15.41;100.00
42111;BME280;27766;52.174;5.456;2022-10-31T12:26:02;101621.09;;;15.09;100.00
42111;BME280;27766;52.174;5.456;2022-10-31T12:31:43;101614.13;;;15.08;100.00
42111;BME280;27766;52.174;5.456;2022-10-31T12:48:14;101583.97;;;15.32;100.00
42111;BME280;27766;52.174;5.456;2022-10-31T12:51:07;101576.13;;;15.32;100.00
42111;BME280;27766;52.174;5.456;2022-10-31T12:59:03;101547.53;;;15.41;100.00
42111;BME280;27766;52.174;5.456;2022-10-31T13:01:38;101547.53;;;15.43;100.00
42111;BME280;27766;52.174;5.456;2022-10-31T13:04:15;101545.88;;;15.49;100.00
42111;BME280;27766;52.174;5.456;2022-10-31T13:07:05;101538.94;;;15.51;100.00
42111;BME280;27766;52.174;5.456;2022-10-31T13:09:40;101533.75;;;15.56;100.00
42111;BME280;27766;52.174;5.456;2022-10-31T13:12:15;101525.09;;;15.60;100.00
42111;BME280;27766;52.174;5.456;2022-10-31T13:14:49;101524.19;;;15.60;100.00
42111;BME280;27766;52.174;5.456;2022-10-31T13:20:04;101516.38;;;15.55;100.00
42111;BME280;27766;52.174;5.456;2022-10-31T13:22:36;101505.00;;;15.48;100.00
42111;BME280;27766;52.174;5.456;2022-10-31T13:25:13;101498.06;;;15.50;100.00
42111;BME280;27766;52.174;5.456;2022-10-31T13:30:26;101476.28;;;15.47;100.00
42111;BME280;27766;52.174;5.456;2022-10-31T13:33:14;101479.72;;;15.43;100.00
42111;BME280;27766;52.174;5.456;2022-10-31T13:35:51;101473.63;;;15.39;100.00
42111;BME280;27766;52.174;5.456;2022-10-31T13:38:30;101473.63;;;15.39;100.00
42111;BME280;27766;52.174;5.456;2022-10-31T13:41:05;101468.41;;;15.39;100.00
42111;BME280;27766;52.174;5.456;2022-10-31T13:46:34;101455.41;;;15.45;100.00
42111;BME280;27766;52.174;5.456;2022-10-31T13:49:02;101453.69;;;15.49;100.00
42111;BME280;27766;52.174;5.456;2022-10-31T13:51:33;101451.16;;;15.55;100.00
42111;BME280;27766;52.174;5.456;2022-10-31T13:54:19;101446.81;;;15.62;100.00
42111;BME280;27766;52.174;5.456;2022-10-31T13:56:53;101427.69;;;15.63;100.00
42111;BME280;27766;52.174;5.456;2022-10-31T13:59:34;101425.16;;;15.71;100.00
42111;BME280;27766;52.174;5.456;2022-10-31T14:02:14;101428.66;;;15.74;100.00
42111;BME280;27766;52.174;5.456;2022-10-31T14:04:48;101429.50;;;15.75;100.00
42111;BME280;27766;52.174;5.456;2022-10-31T14:07:21;101424.28;;;15.75;100.00
42111;BME280;27766;52.174;5.456;2022-10-31T14:09:58;101415.56;;;15.73;100.00
42111;BME280;27766;52.174;5.456;2022-10-31T14:12:43;101409.47;;;15.69;100.00
42111;BME280;27766;52.174;5.456;2022-10-31T14:15:13;101417.31;;;15.74;100.00
42111;BME280;27766;52.174;5.456;2022-10-31T14:20:26;101393.84;;;15.74;100.00
42111;BME280;27766;52.174;5.456;2022-10-31T14:22:58;101394.69;;;15.70;100.00
42111;BME280;27766;52.174;5.456;2022-10-31T14:25:32;101390.31;;;15.65;100.00
42111;BME280;27766;52.174;5.456;2022-10-31T14:28:03;101385.09;;;15.64;100.00
42111;BME280;27766;52.174;5.456;2022-10-31T14:30:56;101378.13;;;15.61;100.00
42111;BME280;27766;52.174;5.456;2022-10-31T14:33:26;101363.31;;;15.54;100.00
42111;BME280;27766;52.174;5.456;2022-10-31T14:38:50;101362.44;;;15.57;100.00
42111;BME280;27766;52.174;5.456;2022-10-31T14:41:36;101365.94;;;15.59;100.00
42111;BME280;27766;52.174;5.456;2022-10-31T14:52:16;101347.59;;;15.45;100.00
42111;BME280;27766;52.174;5.456;2022-10-31T14:54:47;101353.63;;;15.39;100.00
42111;BME280;27766;52.174;5.456;2022-10-31T14:57:26;101347.53;;;15.37;100.00
42111;BME280;27766;52.174;5.456;2022-10-31T15:00:02;101346.63;;;15.30;100.00